Sedgwick Reserve, California Weather observations

Data are for 10 minute period ending at time listed.
 Day   Time   Solar   Ave.   Ave.  Ave.  Vector  Max.   Baro.   Total    
  of    of     Rad.   Air    Rel.  Wind   Wind   Wind  Press.  Precip.   
Year   Day            Temp.  Hum.  Speed  Dir.   Gust                    
2017   (PST)  Kw/m2    F      %     mph   deg.    mph    mb.     in.     
-------------------------------------------------------------------------
  51    1:50   0.00   52.9    87    8.3   132    15.1   976.7    0.00 
  51    2:00   0.00   52.9    87    9.4   118    17.6   976.5    0.01 
  51    2:10   0.00   53.0    87    8.7   123    14.5   976.8    0.00 
  51    2:20   0.00   52.8    89    8.1   122    13.2   977.0    0.01 
  51    2:30   0.00   52.5    90    5.2   107     8.3   976.9    0.00 
  51    2:40   0.00   52.3    92    5.4   122    10.9   976.8    0.01 
  51    2:50   0.00   52.3    92    5.8   146    10.2   976.8    0.00 
  51    3:00   0.00   52.3    92    8.6   151    12.7   976.9    0.01 
  51    3:10   0.00   52.1    93    6.8   146    10.8   976.8    0.02 
  51    3:20   0.00   52.2    93    9.3   139    17.4   976.7    0.00 
  51    3:30   0.00   52.4    92   10.4   122    17.2   976.7    0.00 
  51    3:40   0.00   52.4    91   10.3   110    16.3   976.4    0.00 
  51    3:50   0.00   52.4    91    9.8   128    20.8   976.4    0.00 
  51    4:00   0.00   52.4    90   10.5   118    19.5   976.4    0.00 
  51    4:10   0.00   52.4    90    7.8   139    13.4   976.7    0.00 
  51    4:20   0.00   52.3    90    8.0   147    12.9   976.9    0.02 
  51    4:30   0.00   52.1    92    6.8   145    14.2   977.1    0.01 
  51    4:40   0.00   51.9    92    8.5   148    12.9   977.1    0.00 
  51    4:50   0.00   52.0    92    8.6   139    13.6   977.0    0.00 
  51    5:00   0.00   52.4    90    9.9   142    16.5   977.0    0.00 
  51    5:10   0.00   52.8    88    9.6   152    15.3   977.3    0.00 
  51    5:20   0.00   52.4    90    5.8   173     8.7   977.5    0.00 
  51    5:30   0.00   52.3    90    6.9   137    11.4   977.2    0.00 
  51    5:40   0.00   52.4    90    7.2   127    15.6   977.3    0.00 
  51    5:50   0.00   52.6    89    8.4   135    17.1   977.3    0.00 
  51    6:00   0.00   53.0    88    8.2   127    18.3   977.5    0.00 
  51    6:10   0.00   52.9    89    5.1   152    11.6   977.8    0.00 
  51    6:20   0.00   53.1    88    7.8   115    15.7   977.7    0.00 
  51    6:30   0.00   53.4    87    4.4   132    13.0   978.1    0.00 
  51    6:40   0.00   53.3    87    7.6   148    13.2   978.3    0.00 
  51    6:50   0.00   53.3    88    6.5   113    12.9   978.3    0.01 
  51    7:00   0.00   53.4    87    8.4    97    15.9   978.2    0.00 
  51    7:10   0.00   53.5    87    7.9   121    14.8   978.3    0.00 
  51    7:20   0.00   53.5    87    6.5   142    12.2   978.6    0.00 
  51    7:30   0.01   53.5    87    8.1   109    17.5   978.5    0.00 
  51    7:40   0.02   53.9    86    8.6   120    16.1   978.8    0.00 
  51    7:50   0.03   54.0    85   10.0   120    17.0   978.9    0.00 
  51    8:00   0.04   54.2    85   12.8   120    19.5   978.9    0.00 
  51    8:10   0.11   54.3    85   10.4   119    18.9   979.0    0.00 
  51    8:20   0.10   54.6    86    8.5   122    16.8   979.1    0.00 
  51    8:30   0.07   54.3    86   10.3   115    21.7   979.2    0.00 
  51    8:40   0.12   54.7    85   11.3   106    19.5   979.2    0.00 
  51    8:50   0.16   55.2    84   11.4   112    19.9   979.1    0.00 
  51    9:00   0.18   55.9    82   12.7   112    20.4   979.1    0.00 
  51    9:10   0.22   56.6    80   11.2   110    18.0   979.2    0.00 
  51    9:20   0.35   57.4    79   13.0   114    21.0   979.3    0.00 
  51    9:30   0.48   58.0    80   11.9   109    19.9   979.3    0.00 
  51    9:40   0.30   58.0    80   10.9   103    19.5   979.4    0.00 
  51    9:50   0.45   58.2    80    9.6   108    18.6   979.5    0.00 
  51   10:00   0.59   59.4    77   12.4   104    23.2   979.5    0.00 
  51   10:10   0.29   58.9    77   10.9   120    17.4   979.6    0.00 
  51   10:20   0.27   59.1    76   11.8   124    21.5   979.8    0.00 
  51   10:30   0.22   58.1    78   12.6   122    20.2   980.0    0.00 
  51   10:40   0.15   57.9    79   10.5   136    16.9   980.5    0.00 
  51   10:50   0.14   57.5    81   11.4   142    19.5   980.7    0.00 
  51   11:00   0.17   57.2    81   10.5   131    16.7   980.7    0.00 
  51   11:10   0.20   57.6    81    9.3   115    16.1   980.6    0.00 
  51   11:20   0.30   57.8    81    9.9   121    16.4   980.3    0.00 
  51   11:30   0.46   59.1    79   12.1   109    23.8   980.1    0.00 
  51   11:40   0.28   58.8    79   13.2    99    21.9   980.1    0.00 
  51   11:50   0.32   58.6    80   11.8    98    19.9   979.9    0.00 
  51   12:00   0.31   59.7    78   11.0   126    22.6   979.7    0.00 
  51   12:10   0.28   58.9    79   13.2   130    20.4   979.6    0.00 
  51   12:20   0.26   59.0    80   12.1   140    19.8   979.5    0.00 
  51   12:30   0.36   59.1    80   13.7   142    22.6   979.5    0.00 
  51   12:40   0.28   59.0    79   14.3   141    22.7   979.6    0.00 
  51   12:50   0.27   58.7    80   14.8   144    23.7   979.5    0.00 
  51   13:00   0.26   58.6    80   15.1   141    22.4   979.4    0.00 
  51   13:10   0.27   58.5    80   14.3   138    23.4   979.3    0.00 
  51   13:20   0.16   58.3    80   15.0   142    23.1   979.4    0.00 
  51   13:30   0.16   58.0    81   13.0   139    21.6   979.8    0.00 
  51   13:40   0.20   58.2    81   11.8   146    19.1   979.8    0.00 
  51   13:50   0.40   58.6    81   12.8   141    23.2   979.7    0.00 
  51   14:00   0.33   58.8    80   14.0   135    24.0   979.9    0.00 
  51   14:10   0.25   58.2    81   13.9   124    22.0   979.9    0.00 
  51   14:20   0.18   58.2    82   10.6   135    18.6   979.9    0.00 
  51   14:30   0.09   57.7    82   10.3   133    16.9   980.2    0.00 
  51   14:40   0.12   57.6    82   10.1   125    16.1   980.4    0.00 
  51   14:50   0.16   57.8    82   10.2   133    17.8   980.2    0.00 
  51   15:00   0.09   57.9    82    8.2   144    15.1   980.6    0.00 
  51   15:10   0.08   57.8    82    8.4   141    14.5   980.8    0.00 
  51   15:20   0.20   57.8    81   10.1   134    14.7   980.7    0.00 
  51   15:30   0.23   58.7    80    9.7   122    16.5   980.6    0.00 
  51   15:40   0.21   58.5    80    9.2   124    14.5   980.7    0.00 
  51   15:50   0.14   58.7    80    8.4   129    13.2   980.9    0.00 
  51   16:00   0.12   58.5    80    8.2   124    14.2   980.9    0.00 
  51   16:10   0.12   58.4    80    9.2   132    15.8   980.6    0.00 
  51   16:20   0.05   57.8    81    9.4   124    16.0   980.6    0.00 
  51   16:30   0.05   57.3    82    8.9   125    16.1   980.5    0.00 
  51   16:40   0.05   56.9    84    8.4   124    15.8   980.5    0.00 
  51   16:50   0.04   56.8    84    7.7   130    13.9   980.7    0.00 
  51   17:00   0.03   56.8    85    5.4   131    11.3   980.7    0.00 
  51   17:10   0.02   56.6    85    8.1   125    14.0   980.7    0.00 
  51   17:20   0.01   56.4    84    8.4   123    13.5   980.8    0.00 
  51   17:30   0.01   56.4    84    8.3   125    14.0   981.0    0.00 
  51   17:40   0.00   56.5    83    8.8   115    16.1   981.0    0.00 
  51   17:50   0.00   56.7    82    9.3   123    15.1   981.1    0.00 
  51   18:00   0.00   56.5    83    8.2   126    14.8   981.3    0.00 
  51   18:10   0.00   56.4    83    9.7   116    16.3   981.3    0.00 
  51   18:20   0.00   56.3    83   10.2   121    17.5   981.2    0.00 
  51   18:30   0.00   56.4    82   11.6   116    19.0   981.1    0.00 
  51   18:40   0.00   56.3    83    9.1   126    16.5   981.3    0.00 
  51   18:50   0.00   56.5    82    8.0   126    13.6   981.4    0.00 
  51   19:00   0.00   56.5    82    8.9   124    15.8   981.5    0.00 
  51   19:10   0.00   56.5    82   11.3   117    17.1   981.4    0.00 
  51   19:20   0.00   56.4    82    9.0   120    16.7   981.5    0.00 
  51   19:30   0.00   56.2    82    9.8   118    17.8   981.6    0.00 
  51   19:40   0.00   56.2    82    9.9   121    17.2   981.6    0.00 
  51   19:50   0.00   56.2    82   11.6   120    21.0   981.7    0.00 
  51   20:00   0.00   56.2    82    9.9   131    15.9   981.7    0.00 
  51   20:10   0.00   56.0    82   10.3   127    18.6   981.7    0.00 
  51   20:20   0.00   55.7    84    8.0   138    14.2   981.7    0.00 
  51   20:30   0.00   55.3    85    7.3   131    15.5   981.8    0.00 
  51   20:40   0.00   55.6    84   10.2   116    19.4   981.7    0.00 
  51   20:50   0.00   56.1    82   10.0   118    17.9   981.8    0.00 
  51   21:00   0.00   55.9    82    8.5   134    15.2   982.0    0.00 
  51   21:10   0.00   56.1    82    9.2   128    15.9   982.0    0.00 
  51   21:20   0.00   56.2    81   10.2   130    15.9   982.0    0.00 
  51   21:30   0.00   56.2    81    9.2   134    17.2   982.1    0.00 
  51   21:40   0.00   56.2    81    9.5   146    15.5   982.4    0.00 
  51   21:50   0.00   56.1    81   10.4   146    16.8   982.6    0.00 
  51   22:00   0.00   56.1    80   10.0   134    20.6   982.7    0.00 
  51   22:10   0.00   56.0    80   10.3   125    16.7   982.6    0.00 
  51   22:20   0.00   56.2    79   10.0   116    16.2   982.7    0.00 
  51   22:30   0.00   56.2    79    9.6   120    16.4   982.8    0.00 
  51   22:40   0.00   56.2    79   10.1   116    15.2   982.7    0.00 
  51   22:50   0.00   56.3    77   12.4   112    19.4   982.8    0.00 
  51   23:00   0.00   56.1    78   10.5   106    17.1   982.8    0.00 
  51   23:10   0.00   56.3    78   11.9   108    21.0   982.8    0.00 
  51   23:20   0.00   56.3    78   10.6   105    17.9   982.7    0.00 
  51   23:30   0.00   56.3    78   10.4   102    18.0   982.7    0.00 
  51   23:40   0.00   56.7    77   12.8   104    19.4   982.7    0.00 
  51   23:50   0.00   56.5    78   10.4   105    18.6   982.6    0.00 
  52    0:00   0.00   56.6    76   11.4   113    17.0   982.6    0.00 
  52    0:10   0.00   56.5    76    9.6   106    15.4   982.5    0.00 
  52    0:20   0.00   56.8    74   11.8   114    21.9   982.5    0.00 
  52    0:30   0.00   57.1    73   10.5   111    19.3   982.4    0.00 
  52    0:40   0.00   57.1    72    9.3   120    14.9   982.4    0.00 
  52    0:50   0.00   57.1    72    9.1   121    17.5   982.6    0.00 
  52    1:00   0.00   57.2    72    8.3   116    17.3   982.4    0.00 
  52    1:10   0.00   57.3    71    9.4   115    17.5   982.5    0.00 
  52    1:20   0.00   57.4    71    7.3   117    17.4   982.6    0.00 
  52    1:30   0.00   57.2    72    6.6   152    12.3   982.7    0.00 
  52    1:40   0.00   57.1    74    6.2   143    11.6   982.7    0.00 

Return to Sedgwick Reserve graphs page.


Western Regional Climate Center,wrcc@dri.edu